createdAt,value
2022-09-15T00:00:34.223Z,35.61
2022-09-15T00:01:34.261Z,35.29
2022-09-15T00:02:34.312Z,35.45
2022-09-15T00:03:34.177Z,36.09
2022-09-15T00:04:34.183Z,37.38
2022-09-15T00:05:34.151Z,35.61
2022-09-15T00:06:34.140Z,34.97
2022-09-15T00:07:34.129Z,35.61
2022-09-15T00:08:34.108Z,35.61
2022-09-15T00:09:34.099Z,36.25
2022-09-15T00:10:34.090Z,35.93
2022-09-15T00:11:34.076Z,34.97
2022-09-15T00:12:34.087Z,35.29
2022-09-15T00:13:34.049Z,35.13
2022-09-15T00:14:34.031Z,34.97
2022-09-15T00:15:34.025Z,34.97
2022-09-15T00:16:34.069Z,34.48
2022-09-15T00:17:34.001Z,34.00
2022-09-15T00:18:34.003Z,35.13
2022-09-15T00:19:33.968Z,34.80
2022-09-15T00:20:33.960Z,34.32
2022-09-15T00:21:33.942Z,34.48
2022-09-15T00:22:33.932Z,34.32
2022-09-15T00:23:33.922Z,34.32
2022-09-15T00:24:33.916Z,34.80
2022-09-15T00:25:33.896Z,34.64
2022-09-15T00:26:33.893Z,34.00
2022-09-15T00:27:33.877Z,34.64
2022-09-15T00:28:33.865Z,35.93
2022-09-15T00:29:33.856Z,35.13
2022-09-15T00:30:33.909Z,34.32
2022-09-15T00:31:33.826Z,34.64
2022-09-15T00:32:33.807Z,34.48
2022-09-15T00:33:33.798Z,34.48
2022-09-15T00:34:33.784Z,34.48
2022-09-15T00:35:33.767Z,35.29
2022-09-15T00:36:33.767Z,34.48
2022-09-15T00:37:33.750Z,34.48
2022-09-15T00:38:33.735Z,34.80
2022-09-15T00:39:33.724Z,34.32
2022-09-15T00:40:33.753Z,34.48
2022-09-15T00:41:33.694Z,34.48
2022-09-15T00:42:33.703Z,34.48
2022-09-15T00:43:33.672Z,35.45
2022-09-15T00:44:33.668Z,34.97
2022-09-15T00:45:33.686Z,35.13
2022-09-15T00:46:33.633Z,34.80
2022-09-15T00:47:33.619Z,35.29
2022-09-15T00:48:33.617Z,34.97
2022-09-15T00:49:33.595Z,34.48
2022-09-15T00:50:33.601Z,34.00
2022-09-15T00:51:33.586Z,34.48
2022-09-15T00:52:33.564Z,34.97
2022-09-15T00:53:33.551Z,34.32
2022-09-15T00:54:33.547Z,34.48
2022-09-15T00:55:33.519Z,34.80
2022-09-15T00:56:33.515Z,34.97
2022-09-15T00:57:33.508Z,34.48
2022-09-15T00:58:33.486Z,34.97
2022-09-15T00:59:33.475Z,34.97
2022-09-15T01:00:33.470Z,34.80
2022-09-15T01:01:33.491Z,34.16
2022-09-15T01:02:33.535Z,34.64
2022-09-15T01:03:33.435Z,34.80
2022-09-15T01:04:33.413Z,34.97
2022-09-15T01:05:33.398Z,34.16
2022-09-15T01:06:33.398Z,34.32
2022-09-15T01:07:33.373Z,36.25
2022-09-15T01:08:33.366Z,35.45
2022-09-15T01:09:33.355Z,35.93
2022-09-15T01:10:33.340Z,34.80
2022-09-15T01:11:33.330Z,35.13
2022-09-15T01:12:33.330Z,35.45
2022-09-15T01:13:33.301Z,34.97
2022-09-15T01:14:33.284Z,34.48
2022-09-15T01:15:33.271Z,34.32
2022-09-15T01:16:33.356Z,34.32
2022-09-15T01:17:33.253Z,34.32
2022-09-15T01:18:33.250Z,34.80
2022-09-15T01:19:33.225Z,34.80
2022-09-15T01:20:33.215Z,34.00
2022-09-15T01:21:33.205Z,35.13
2022-09-15T01:22:33.184Z,34.48
2022-09-15T01:23:33.178Z,34.64
2022-09-15T01:24:33.183Z,34.48
2022-09-15T01:25:33.160Z,34.80
2022-09-15T01:26:33.143Z,34.80
2022-09-15T01:27:48.438Z,34.64
2022-09-15T01:28:33.125Z,34.48
2022-09-15T01:29:33.185Z,34.48
2022-09-15T01:30:33.103Z,34.48
2022-09-15T01:31:33.101Z,34.48
2022-09-15T01:32:33.064Z,34.64
2022-09-15T01:33:33.052Z,34.16
2022-09-15T01:34:33.047Z,34.80
2022-09-15T01:35:33.026Z,34.16
2022-09-15T01:36:33.024Z,34.16
2022-09-15T01:37:33.004Z,34.64
2022-09-15T01:38:32.995Z,34.97
2022-09-15T01:39:32.973Z,34.48
2022-09-15T01:40:33.008Z,34.64
2022-09-15T01:41:32.950Z,34.80
2022-09-15T01:42:32.958Z,34.48
2022-09-15T01:43:32.938Z,34.48
2022-09-15T01:44:32.914Z,34.97
2022-09-15T01:45:32.969Z,34.97
2022-09-15T01:46:32.916Z,34.80
2022-09-15T01:47:32.877Z,36.58
2022-09-15T01:48:32.874Z,34.48
2022-09-15T01:49:32.856Z,34.48
2022-09-15T01:50:32.855Z,34.80
2022-09-15T01:51:32.837Z,34.32
2022-09-15T01:52:32.827Z,34.16
2022-09-15T01:53:32.802Z,34.00
2022-09-15T01:54:32.809Z,34.48
2022-09-15T01:55:32.788Z,34.48
2022-09-15T01:56:32.775Z,34.97
2022-09-15T01:57:32.764Z,35.29
2022-09-15T01:58:32.742Z,35.61
2022-09-15T01:59:32.735Z,34.97
2022-09-15T02:00:32.737Z,35.29
2022-09-15T02:01:32.762Z,34.97
2022-09-15T02:02:32.748Z,36.09
2022-09-15T02:03:32.680Z,35.29
2022-09-15T02:04:32.663Z,35.29
2022-09-15T02:05:32.656Z,34.48
2022-09-15T02:06:32.645Z,35.61
2022-09-15T02:07:32.631Z,34.80
2022-09-15T02:08:32.619Z,35.77
2022-09-15T02:09:32.605Z,35.61
2022-09-15T02:10:32.596Z,35.45
2022-09-15T02:11:32.583Z,35.13
2022-09-15T02:12:32.589Z,35.61
2022-09-15T02:13:32.556Z,35.13
2022-09-15T02:14:32.543Z,35.13
2022-09-15T02:15:32.527Z,35.29
2022-09-15T02:16:32.545Z,34.48
2022-09-15T02:17:32.504Z,35.29
2022-09-15T02:18:32.504Z,34.48
2022-09-15T02:19:32.495Z,34.64
2022-09-15T02:20:32.467Z,34.64
2022-09-15T02:21:32.458Z,34.80
2022-09-15T02:22:32.442Z,34.48
2022-09-15T02:23:32.439Z,34.48
2022-09-15T02:24:32.437Z,33.84
2022-09-15T02:25:32.407Z,34.00
2022-09-15T02:26:32.395Z,34.00
2022-09-15T02:27:32.380Z,34.80
2022-09-15T02:28:32.369Z,34.32
2022-09-15T02:29:32.361Z,34.00
2022-09-15T02:30:32.363Z,34.80
2022-09-15T02:31:32.381Z,34.97
2022-09-15T02:32:32.323Z,34.64
2022-09-15T02:33:32.305Z,34.64
2022-09-15T02:34:32.303Z,34.64
2022-09-15T02:35:32.278Z,34.80
2022-09-15T02:36:32.284Z,34.32
2022-09-15T02:37:32.260Z,34.64
2022-09-15T02:38:32.249Z,34.80
2022-09-15T02:39:32.234Z,34.16
2022-09-15T02:40:32.307Z,36.25
2022-09-15T02:41:32.210Z,34.64
2022-09-15T02:42:32.206Z,34.48
2022-09-15T02:43:32.190Z,34.97
2022-09-15T02:44:32.177Z,35.61
2022-09-15T02:45:32.221Z,35.13
2022-09-15T02:46:32.146Z,34.48
2022-09-15T02:47:32.134Z,34.48
2022-09-15T02:48:32.152Z,35.77
2022-09-15T02:49:32.108Z,35.45
2022-09-15T02:50:32.097Z,34.97
2022-09-15T02:51:32.083Z,34.64
2022-09-15T02:52:32.073Z,33.84
2022-09-15T02:53:32.061Z,34.48
2022-09-15T02:54:32.094Z,34.80
2022-09-15T02:55:32.050Z,35.45
2022-09-15T02:56:32.026Z,34.48
2022-09-15T02:57:32.026Z,35.45
2022-09-15T02:58:32.000Z,35.61
2022-09-15T02:59:31.986Z,35.13
2022-09-15T03:00:32.019Z,34.64
2022-09-15T03:01:31.973Z,34.80
2022-09-15T03:02:31.980Z,35.45
2022-09-15T03:03:31.939Z,34.80
2022-09-15T03:04:31.934Z,35.61
2022-09-15T03:05:31.912Z,35.29
2022-09-15T03:06:31.910Z,34.16
2022-09-15T03:07:31.888Z,35.93
2022-09-15T03:08:31.880Z,35.13
2022-09-15T03:09:31.879Z,34.80
2022-09-15T03:10:31.850Z,35.29
2022-09-15T03:11:31.835Z,35.29
2022-09-15T03:12:31.844Z,35.93
2022-09-15T03:13:31.810Z,35.13
2022-09-15T03:14:31.801Z,34.97
2022-09-15T03:15:31.791Z,35.13
2022-09-15T03:16:31.860Z,34.48
2022-09-15T03:17:31.768Z,35.77
2022-09-15T03:18:31.760Z,34.64
2022-09-15T03:19:31.750Z,34.80
2022-09-15T03:20:31.725Z,34.32
2022-09-15T03:21:31.723Z,35.29
2022-09-15T03:22:31.707Z,34.97
2022-09-15T03:23:31.695Z,34.80
2022-09-15T03:24:31.690Z,34.64
2022-09-15T03:25:31.669Z,34.00
2022-09-15T03:26:31.650Z,34.97
2022-09-15T03:27:31.636Z,35.29
2022-09-15T03:28:31.625Z,35.61
2022-09-15T03:29:31.613Z,34.48
2022-09-15T03:30:31.624Z,34.80
2022-09-15T03:31:31.621Z,34.80
2022-09-15T03:32:31.581Z,35.29
2022-09-15T03:33:31.559Z,34.32
2022-09-15T03:34:31.549Z,35.61
2022-09-15T03:35:31.540Z,34.48
2022-09-15T03:36:31.559Z,35.77
2022-09-15T03:37:31.525Z,34.80
2022-09-15T03:38:31.508Z,34.80
2022-09-15T03:39:31.489Z,34.97
2022-09-15T03:40:31.546Z,35.29
2022-09-15T03:41:31.460Z,34.16
2022-09-15T03:42:31.464Z,35.77
2022-09-15T03:43:31.441Z,35.29
2022-09-15T03:44:31.427Z,35.45
2022-09-15T03:45:31.431Z,35.29
2022-09-15T03:46:31.404Z,35.61
2022-09-15T03:47:31.391Z,35.93
2022-09-15T03:48:31.383Z,34.16
2022-09-15T03:49:31.367Z,35.45
2022-09-15T03:50:31.350Z,34.32
2022-09-15T03:51:31.337Z,34.48
2022-09-15T03:52:31.325Z,34.32
2022-09-15T03:53:31.316Z,35.13
2022-09-15T03:54:31.319Z,33.84
2022-09-15T03:55:31.294Z,34.16
2022-09-15T03:56:31.314Z,34.48
2022-09-15T03:57:31.268Z,35.93
2022-09-15T03:58:31.257Z,34.97
2022-09-15T03:59:31.242Z,35.13
2022-09-15T04:00:31.294Z,35.77
2022-09-15T04:01:31.249Z,34.97
2022-09-15T04:02:31.205Z,35.29
2022-09-15T04:03:31.193Z,35.61
2022-09-15T04:04:31.176Z,35.77
2022-09-15T04:05:31.175Z,35.93
2022-09-15T04:06:31.171Z,34.97
2022-09-15T04:07:31.148Z,36.09
2022-09-15T04:08:31.124Z,36.58
2022-09-15T04:09:31.114Z,37.22
2022-09-15T04:10:31.106Z,34.80
2022-09-15T04:11:31.090Z,35.13
2022-09-15T04:12:31.086Z,34.32
2022-09-15T04:13:31.066Z,35.77
2022-09-15T04:14:31.052Z,34.48
2022-09-15T04:15:31.043Z,35.61
2022-09-15T04:16:31.071Z,35.29
2022-09-15T04:17:31.017Z,34.16
2022-09-15T04:18:31.018Z,34.97
2022-09-15T04:19:30.991Z,35.45
2022-09-15T04:20:30.978Z,34.80
2022-09-15T04:21:30.971Z,36.09
2022-09-15T04:22:30.956Z,35.13
2022-09-15T04:23:30.939Z,35.13
2022-09-15T04:24:30.941Z,34.97
2022-09-15T04:25:30.942Z,35.93
2022-09-15T04:26:30.920Z,34.48
2022-09-15T04:27:30.893Z,34.97
2022-09-15T04:28:30.879Z,34.48
2022-09-15T04:29:30.869Z,34.48
2022-09-15T04:30:30.865Z,38.67
2022-09-15T04:31:30.948Z,34.64
2022-09-15T04:32:30.832Z,34.00
2022-09-15T04:33:30.815Z,35.61
2022-09-15T04:34:30.807Z,34.64
2022-09-15T04:35:30.791Z,34.48
2022-09-15T04:36:30.788Z,34.64
2022-09-15T04:37:30.781Z,37.22
2022-09-15T04:38:30.761Z,34.64
2022-09-15T04:39:30.738Z,35.13
2022-09-15T04:40:30.776Z,34.00
2022-09-15T04:41:30.720Z,34.16
2022-09-15T04:42:30.722Z,34.80
2022-09-15T04:43:30.691Z,38.99
2022-09-15T04:44:30.681Z,34.97
2022-09-15T04:45:30.667Z,35.77
2022-09-15T04:46:30.719Z,36.09
2022-09-15T04:47:30.649Z,34.64
2022-09-15T04:48:30.638Z,35.45
2022-09-15T04:49:30.616Z,34.64
2022-09-15T04:50:30.606Z,34.48
2022-09-15T04:51:30.591Z,34.48
2022-09-15T04:52:30.585Z,34.97
2022-09-15T04:53:30.527Z,34.48
2022-09-15T04:54:30.570Z,36.58
2022-09-15T04:55:30.560Z,34.48
2022-09-15T04:56:30.534Z,34.97
2022-09-15T04:57:30.517Z,35.45
2022-09-15T04:58:30.512Z,35.29
2022-09-15T04:59:30.438Z,35.61
2022-09-15T05:00:30.602Z,36.25
2022-09-15T05:01:30.471Z,36.58
2022-09-15T05:02:30.591Z,35.29
2022-09-15T05:03:30.450Z,35.45
2022-09-15T05:04:30.431Z,36.58
2022-09-15T05:05:30.424Z,35.93
2022-09-15T05:06:30.371Z,36.90
2022-09-15T05:07:30.352Z,34.64
2022-09-15T05:08:30.339Z,34.64
2022-09-15T05:09:30.313Z,36.74
2022-09-15T05:10:30.303Z,35.61
2022-09-15T05:11:30.314Z,34.80
2022-09-15T05:12:30.296Z,36.42
2022-09-15T05:13:30.277Z,41.73
2022-09-15T05:14:30.253Z,43.83
2022-09-15T05:15:30.236Z,35.45
2022-09-15T05:16:30.399Z,35.13
2022-09-15T05:17:30.217Z,34.48
2022-09-15T05:18:30.213Z,35.29
2022-09-15T05:19:30.188Z,35.45
2022-09-15T05:20:30.182Z,34.97
2022-09-15T05:21:30.163Z,34.32
2022-09-15T05:22:30.150Z,35.93
2022-09-15T05:23:30.140Z,33.84
2022-09-15T05:24:30.143Z,34.48
2022-09-15T05:25:30.133Z,34.48
2022-09-15T05:26:30.109Z,34.48
2022-09-15T05:27:30.092Z,35.77
2022-09-15T05:28:30.074Z,35.13
2022-09-15T05:29:30.069Z,36.58
2022-09-15T05:30:38.626Z,34.48
2022-09-15T05:31:30.147Z,34.80
2022-09-15T05:32:30.026Z,35.13
2022-09-15T05:33:30.014Z,35.45
2022-09-15T05:34:30.009Z,35.29
2022-09-15T05:35:30.000Z,34.64
2022-09-15T05:36:29.987Z,34.00
2022-09-15T05:37:29.967Z,34.64
2022-09-15T05:38:29.952Z,34.97
2022-09-15T05:39:29.939Z,61.55
2022-09-15T05:40:29.951Z,34.80
2022-09-15T05:41:29.919Z,35.13
2022-09-15T05:42:29.919Z,34.97
2022-09-15T05:43:29.887Z,35.45
2022-09-15T05:44:29.878Z,35.93
2022-09-15T05:45:29.862Z,36.25
2022-09-15T05:46:29.884Z,34.80
2022-09-15T05:47:29.845Z,35.61
2022-09-15T05:48:29.855Z,34.48
2022-09-15T05:49:29.811Z,34.97
2022-09-15T05:50:29.800Z,35.93
2022-09-15T05:51:29.793Z,34.97
2022-09-15T05:52:29.781Z,35.45
2022-09-15T05:53:29.826Z,50.27
2022-09-15T05:54:29.894Z,58.17
2022-09-15T05:55:29.881Z,58.01
2022-09-15T05:56:29.723Z,59.62
2022-09-15T05:57:29.731Z,60.59
2022-09-15T05:58:29.725Z,60.75
2022-09-15T05:59:29.701Z,49.95
2022-09-15T06:00:29.687Z,60.91
2022-09-15T06:01:29.728Z,54.95
2022-09-15T06:02:29.747Z,57.20
2022-09-15T06:03:31.095Z,46.89
2022-09-15T06:04:29.624Z,63.33
2022-09-15T06:05:29.848Z,54.14
2022-09-15T06:06:29.618Z,59.46
2022-09-15T06:07:29.602Z,63.00
2022-09-15T06:08:29.578Z,60.26
2022-09-15T06:09:29.566Z,49.31
2022-09-15T06:10:29.548Z,59.30
2022-09-15T06:11:29.540Z,63.65
2022-09-15T06:12:29.722Z,63.81
2022-09-15T06:13:29.517Z,58.01
2022-09-15T06:14:29.501Z,54.14
2022-09-15T06:15:29.486Z,59.78
2022-09-15T06:16:29.528Z,58.97
2022-09-15T06:17:29.465Z,55.75
2022-09-15T06:18:29.474Z,57.52
2022-09-15T06:19:29.439Z,62.68
2022-09-15T06:20:29.429Z,53.01
2022-09-15T06:21:29.412Z,60.91
2022-09-15T06:22:29.413Z,57.36
2022-09-15T06:23:29.389Z,54.62
2022-09-15T06:24:29.384Z,60.75
2022-09-15T06:25:29.384Z,61.23
2022-09-15T06:26:29.360Z,53.33
2022-09-15T06:27:29.342Z,57.52
2022-09-15T06:28:29.332Z,59.62
2022-09-15T06:29:29.335Z,62.84
2022-09-15T06:30:29.322Z,65.90
2022-09-15T06:31:29.411Z,64.13
2022-09-15T06:32:29.289Z,72.67
2022-09-15T06:33:29.275Z,61.07
2022-09-15T06:34:29.312Z,70.09
2022-09-15T06:35:29.251Z,77.67
2022-09-15T06:36:29.231Z,59.94
2022-09-15T06:37:29.213Z,74.28
2022-09-15T06:38:29.202Z,52.85
2022-09-15T06:39:29.186Z,51.40
2022-09-15T06:40:29.287Z,62.52
2022-09-15T06:41:38.149Z,66.55
2022-09-15T06:42:29.169Z,65.58
2022-09-15T06:43:29.167Z,62.84
2022-09-15T06:44:29.140Z,68.80
2022-09-15T06:45:29.123Z,53.01
2022-09-15T06:46:29.127Z,61.55
2022-09-15T06:47:29.116Z,53.17
2022-09-15T06:48:29.081Z,60.42
2022-09-15T06:49:29.065Z,57.52
2022-09-15T06:50:29.062Z,56.40
2022-09-15T06:51:29.040Z,54.46
2022-09-15T06:52:29.042Z,58.97
2022-09-15T06:53:29.051Z,58.01
2022-09-15T06:54:29.023Z,68.80
2022-09-15T06:55:28.988Z,58.65
2022-09-15T06:56:28.983Z,56.88
2022-09-15T06:57:28.969Z,60.42
2022-09-15T06:58:28.964Z,65.58
2022-09-15T06:59:28.936Z,55.11
2022-09-15T07:00:28.940Z,57.04
2022-09-15T07:01:28.915Z,58.01
2022-09-15T07:02:29.058Z,54.46
2022-09-15T07:03:29.043Z,55.11
2022-09-15T07:04:28.885Z,56.56
2022-09-15T07:05:28.863Z,52.37
2022-09-15T07:06:28.883Z,51.56
2022-09-15T07:07:28.846Z,54.95
2022-09-15T07:08:28.825Z,51.08
2022-09-15T07:09:28.809Z,49.31
2022-09-15T07:10:28.796Z,54.14
2022-09-15T07:11:28.791Z,53.66
2022-09-15T07:12:28.789Z,51.24
2022-09-15T07:13:28.800Z,56.40
2022-09-15T07:14:28.748Z,59.30
2022-09-15T07:15:28.748Z,61.07
2022-09-15T07:16:28.778Z,52.85
2022-09-15T07:17:28.720Z,57.04
2022-09-15T07:18:28.723Z,47.86
2022-09-15T07:19:28.691Z,54.62
2022-09-15T07:20:28.680Z,87.17
2022-09-15T07:21:28.665Z,55.27
2022-09-15T07:22:28.657Z,57.36
2022-09-15T07:23:28.638Z,68.32
2022-09-15T07:24:28.660Z,57.85
2022-09-15T07:25:28.613Z,57.04
2022-09-15T07:26:28.601Z,49.15
2022-09-15T07:27:28.594Z,60.59
2022-09-15T07:28:28.604Z,50.76
2022-09-15T07:29:28.575Z,59.62
2022-09-15T07:30:28.561Z,60.10
2022-09-15T07:31:28.607Z,57.20
2022-09-15T07:32:28.556Z,57.85
2022-09-15T07:33:28.516Z,55.43
2022-09-15T07:34:28.531Z,56.56
2022-09-15T07:35:28.524Z,56.88
2022-09-15T07:36:28.498Z,53.33
2022-09-15T07:37:28.471Z,52.21
2022-09-15T07:38:28.490Z,60.10
2022-09-15T07:39:28.455Z,52.21
2022-09-15T07:40:28.496Z,65.90
2022-09-15T07:41:28.419Z,60.59
2022-09-15T07:42:32.070Z,55.59
2022-09-15T07:43:28.412Z,56.07
2022-09-15T07:44:28.394Z,57.20
2022-09-15T07:45:28.396Z,64.13
2022-09-15T07:46:28.360Z,58.33
2022-09-15T07:47:28.342Z,53.33
2022-09-15T07:48:28.341Z,59.62
2022-09-15T07:49:28.319Z,59.30
2022-09-15T07:50:28.304Z,55.43
2022-09-15T07:51:28.313Z,60.75
2022-09-15T07:52:28.284Z,61.71
2022-09-15T07:53:28.259Z,61.55
2022-09-15T07:54:28.260Z,63.65
2022-09-15T07:55:28.237Z,56.07
2022-09-15T07:56:28.235Z,55.11
2022-09-15T07:57:28.212Z,51.88
2022-09-15T07:58:28.205Z,54.79
2022-09-15T07:59:28.191Z,53.82
2022-09-15T08:00:28.254Z,50.92
2022-09-15T08:01:28.229Z,54.79
2022-09-15T08:02:28.204Z,50.11
2022-09-15T08:03:28.163Z,49.95
2022-09-15T08:04:28.153Z,53.82
2022-09-15T08:05:28.146Z,54.30
2022-09-15T08:06:28.132Z,53.01
2022-09-15T08:07:28.088Z,50.43
2022-09-15T08:08:28.084Z,67.51
2022-09-15T08:09:28.067Z,54.30
2022-09-15T08:10:28.049Z,54.14
2022-09-15T08:11:28.039Z,47.05
2022-09-15T08:12:28.073Z,58.33
2022-09-15T08:13:28.026Z,55.43
2022-09-15T08:14:28.005Z,46.25
2022-09-15T08:15:27.980Z,53.01
2022-09-15T08:16:28.029Z,57.04
2022-09-15T08:17:27.967Z,55.43
2022-09-15T08:18:27.995Z,49.31
2022-09-15T08:19:27.939Z,54.79
2022-09-15T08:20:27.948Z,56.40
2022-09-15T08:21:27.903Z,54.79
2022-09-15T08:22:27.904Z,50.60
2022-09-15T08:23:27.888Z,53.98
2022-09-15T08:24:27.900Z,53.33
2022-09-15T08:25:27.854Z,56.88
2022-09-15T08:26:27.846Z,53.50
2022-09-15T08:27:27.834Z,48.66
2022-09-15T08:28:27.821Z,54.62
2022-09-15T08:29:27.803Z,52.85
2022-09-15T08:30:27.829Z,56.88
2022-09-15T08:31:27.890Z,54.14
2022-09-15T08:32:27.764Z,52.85
2022-09-15T08:33:27.755Z,49.31
2022-09-15T08:34:27.764Z,53.50
2022-09-15T08:35:28.005Z,47.37
2022-09-15T08:36:28.188Z,45.28
2022-09-15T08:37:27.704Z,52.53
2022-09-15T08:38:27.687Z,56.40
2022-09-15T08:39:27.688Z,55.11
2022-09-15T08:40:27.696Z,54.95
2022-09-15T08:41:27.648Z,56.07
2022-09-15T08:42:27.694Z,52.37
2022-09-15T08:43:27.636Z,53.82
2022-09-15T08:44:27.611Z,56.07
2022-09-15T08:45:27.599Z,52.05
2022-09-15T08:46:27.787Z,56.88
2022-09-15T08:47:27.576Z,52.21
2022-09-15T08:48:27.575Z,52.53
2022-09-15T08:49:50.095Z,53.66
2022-09-15T08:50:27.547Z,48.98
2022-09-15T08:51:27.525Z,50.76
2022-09-15T08:52:27.749Z,51.24
2022-09-15T08:53:27.527Z,38.35
2022-09-15T08:54:27.493Z,36.09
2022-09-15T08:55:27.471Z,38.03
2022-09-15T08:56:27.474Z,36.42
2022-09-15T08:57:27.453Z,38.99
2022-09-15T08:58:27.456Z,35.61
2022-09-15T08:59:27.429Z,37.06
2022-09-15T09:00:27.451Z,45.12
2022-09-15T09:01:27.516Z,46.89
2022-09-15T09:02:27.554Z,36.58
2022-09-15T09:03:27.396Z,37.06
2022-09-15T09:04:27.385Z,41.25
2022-09-15T09:05:27.352Z,40.28
2022-09-15T09:06:27.347Z,36.42
2022-09-15T09:07:27.328Z,77.50
2022-09-15T09:08:27.309Z,38.51
2022-09-15T09:09:27.298Z,37.54
2022-09-15T09:10:27.293Z,38.67
2022-09-15T09:11:27.284Z,37.06
2022-09-15T09:12:27.284Z,40.12
2022-09-15T09:13:28.502Z,40.61
2022-09-15T09:14:27.243Z,41.25
2022-09-15T09:15:27.319Z,38.03
2022-09-15T09:16:27.215Z,42.06
2022-09-15T09:17:27.195Z,37.54
2022-09-15T09:18:27.204Z,34.97
2022-09-15T09:19:31.379Z,35.77
2022-09-15T09:20:27.162Z,35.13
2022-09-15T09:21:27.154Z,47.53
2022-09-15T09:22:27.140Z,38.67
2022-09-15T09:23:27.133Z,38.35
2022-09-15T09:24:27.144Z,50.27
2022-09-15T09:25:28.349Z,43.83
2022-09-15T09:26:27.082Z,37.38
2022-09-15T09:27:27.073Z,36.74
2022-09-15T09:28:27.065Z,43.34
2022-09-15T09:29:27.063Z,38.03
2022-09-15T09:30:27.049Z,38.83
2022-09-15T09:31:27.131Z,42.86
2022-09-15T09:32:27.021Z,36.58
2022-09-15T09:33:26.994Z,48.34
2022-09-15T09:34:26.988Z,36.42
2022-09-15T09:35:26.978Z,35.93
2022-09-15T09:36:26.972Z,36.74
2022-09-15T09:37:26.952Z,37.87
2022-09-15T09:38:26.936Z,37.87
2022-09-15T09:39:26.926Z,36.58
2022-09-15T09:40:26.948Z,52.37
2022-09-15T09:41:26.918Z,45.12
2022-09-15T09:42:26.902Z,44.15
2022-09-15T09:43:26.889Z,59.78
2022-09-15T09:44:26.864Z,38.99
2022-09-15T09:45:26.853Z,38.99
2022-09-15T09:46:26.899Z,40.93
2022-09-15T09:47:26.825Z,38.51
2022-09-15T09:48:26.834Z,45.12
2022-09-15T09:49:26.805Z,51.24
2022-09-15T09:50:26.786Z,47.05
2022-09-15T09:51:26.784Z,41.57
2022-09-15T09:52:26.765Z,36.90
2022-09-15T09:53:26.753Z,38.99
2022-09-15T09:54:26.779Z,37.38
2022-09-15T09:55:26.728Z,36.09
2022-09-15T09:56:26.732Z,43.51
2022-09-15T09:57:26.699Z,41.25
2022-09-15T09:58:26.698Z,69.93
2022-09-15T09:59:26.676Z,33.84
2022-09-15T10:00:26.678Z,34.48
2022-09-15T10:01:26.739Z,33.03
2022-09-15T10:02:26.639Z,34.00
2022-09-15T10:03:32.086Z,36.25
2022-09-15T10:04:26.664Z,33.84
2022-09-15T10:05:26.601Z,33.19
2022-09-15T10:06:26.610Z,34.16
2022-09-15T10:07:26.578Z,33.68
2022-09-15T10:08:26.602Z,33.03
2022-09-15T10:09:31.207Z,34.16
2022-09-15T10:10:26.553Z,33.84
2022-09-15T10:11:26.527Z,34.97
2022-09-15T10:12:26.528Z,33.52
2022-09-15T10:13:26.504Z,34.16
2022-09-15T10:14:26.500Z,33.84
2022-09-15T10:15:26.477Z,35.45
2022-09-15T10:16:26.541Z,35.29
2022-09-15T10:17:26.464Z,33.84
2022-09-15T10:18:26.449Z,34.80
2022-09-15T10:19:26.434Z,35.13
2022-09-15T10:20:26.413Z,34.16
2022-09-15T10:21:26.402Z,36.09
2022-09-15T10:22:26.390Z,33.52
2022-09-15T10:23:26.378Z,33.52
2022-09-15T10:24:26.373Z,33.84
2022-09-15T10:25:39.462Z,34.00
2022-09-15T10:26:26.347Z,35.45
2022-09-15T10:27:26.335Z,33.84
2022-09-15T10:28:26.331Z,35.45
2022-09-15T10:29:26.298Z,33.35
2022-09-15T10:30:26.312Z,34.16
2022-09-15T10:31:26.347Z,34.00
2022-09-15T10:32:26.340Z,33.35
2022-09-15T10:33:26.259Z,33.84
2022-09-15T10:34:26.247Z,33.68
2022-09-15T10:35:26.249Z,33.52
2022-09-15T10:36:26.226Z,34.48
2022-09-15T10:37:26.202Z,36.09
2022-09-15T10:38:26.191Z,36.74
2022-09-15T10:39:26.187Z,38.51
2022-09-15T10:40:26.368Z,36.09
2022-09-15T10:41:26.154Z,34.80
2022-09-15T10:42:26.170Z,38.83
2022-09-15T10:43:26.129Z,34.48
2022-09-15T10:44:26.122Z,34.80
2022-09-15T10:45:26.212Z,34.48
2022-09-15T10:46:26.091Z,36.58
2022-09-15T10:47:26.077Z,34.64
2022-09-15T10:48:26.079Z,38.03
2022-09-15T10:49:26.054Z,42.06
2022-09-15T10:50:26.081Z,36.42
2022-09-15T10:51:26.026Z,44.79
2022-09-15T10:52:26.017Z,34.48
2022-09-15T10:53:26.007Z,35.13
2022-09-15T10:54:26.010Z,40.77
2022-09-15T10:55:42.486Z,35.93
2022-09-15T10:56:25.981Z,38.03
2022-09-15T10:58:25.940Z,41.25
2022-09-15T10:59:25.927Z,35.45
2022-09-15T11:00:25.932Z,36.42
2022-09-15T11:01:25.959Z,36.09
2022-09-15T11:02:25.959Z,35.45
2022-09-15T11:03:25.875Z,37.22
2022-09-15T11:04:25.874Z,38.99
2022-09-15T11:05:25.854Z,35.93
2022-09-15T11:06:25.871Z,35.45
2022-09-15T11:07:25.837Z,37.71
2022-09-15T11:08:25.813Z,34.48
2022-09-15T11:09:25.811Z,35.61
2022-09-15T11:10:25.796Z,34.80
2022-09-15T11:11:25.781Z,37.06
2022-09-15T11:12:29.092Z,34.48
2022-09-15T11:13:25.756Z,42.70
2022-09-15T11:14:25.746Z,37.22
2022-09-15T11:15:25.729Z,50.76
2022-09-15T11:16:25.772Z,39.32
2022-09-15T11:17:25.712Z,38.35
2022-09-15T11:18:25.712Z,35.45
2022-09-15T11:19:25.685Z,35.93
2022-09-15T11:20:25.670Z,35.77
2022-09-15T11:21:25.655Z,41.09
2022-09-15T11:22:25.647Z,37.06
2022-09-15T11:23:25.629Z,34.64
2022-09-15T11:24:25.649Z,35.29
2022-09-15T11:25:25.611Z,34.32
2022-09-15T11:26:25.592Z,36.25
2022-09-15T11:27:25.583Z,36.58
2022-09-15T11:28:25.571Z,42.06
2022-09-15T11:29:25.561Z,35.45
2022-09-15T11:30:25.569Z,35.29
2022-09-15T11:31:25.565Z,34.32
2022-09-15T11:32:25.526Z,37.54
2022-09-15T11:33:25.509Z,45.60
2022-09-15T11:34:25.502Z,34.97
2022-09-15T11:35:25.485Z,45.60
2022-09-15T11:36:25.496Z,37.38
2022-09-15T11:37:25.456Z,39.64
2022-09-15T11:38:25.443Z,35.77
2022-09-15T11:39:25.434Z,34.32
2022-09-15T11:40:25.477Z,59.94
2022-09-15T11:41:25.831Z,44.79
2022-09-15T11:42:25.411Z,37.54
2022-09-15T11:43:25.388Z,40.93
2022-09-15T11:44:25.379Z,46.25
2022-09-15T11:45:25.362Z,47.86
2022-09-15T11:46:25.432Z,38.99
2022-09-15T11:47:25.329Z,55.75
2022-09-15T11:48:25.335Z,34.32
2022-09-15T11:49:25.303Z,46.89
2022-09-15T11:50:25.297Z,39.80
2022-09-15T11:51:25.279Z,36.42
2022-09-15T11:52:25.275Z,59.46
2022-09-15T11:53:25.253Z,37.06
2022-09-15T11:54:25.270Z,57.69
2022-09-15T11:55:25.229Z,33.68
2022-09-15T11:56:25.220Z,51.40
2022-09-15T11:57:25.224Z,65.90
2022-09-15T11:58:25.224Z,52.85
2022-09-15T11:59:25.180Z,63.00
2022-09-15T12:00:25.190Z,50.43
2022-09-15T12:01:25.152Z,49.15
2022-09-15T12:02:25.226Z,35.13
2022-09-15T12:03:25.129Z,43.99
2022-09-15T12:04:25.123Z,42.22
2022-09-15T12:05:25.107Z,45.92
2022-09-15T12:06:25.109Z,60.26
2022-09-15T12:07:25.083Z,41.25
2022-09-15T12:08:25.074Z,55.75
2022-09-15T12:09:25.065Z,40.77
2022-09-15T12:10:25.039Z,50.11
2022-09-15T12:11:25.049Z,40.12
2022-09-15T12:12:29.289Z,44.31
2022-09-15T12:13:25.014Z,56.56
2022-09-15T12:14:25.003Z,54.46
2022-09-15T12:15:24.983Z,34.97
2022-09-15T12:16:25.015Z,40.61
2022-09-15T12:17:24.958Z,43.51
2022-09-15T12:18:38.490Z,34.64
2022-09-15T12:19:24.941Z,34.97
2022-09-15T12:20:24.925Z,34.97
2022-09-15T12:21:24.903Z,36.09
2022-09-15T12:22:24.903Z,34.97
2022-09-15T12:23:24.882Z,36.90
2022-09-15T12:24:24.886Z,40.12
2022-09-15T12:25:24.855Z,39.48
2022-09-15T12:26:24.853Z,35.77
2022-09-15T12:27:24.836Z,37.71
2022-09-15T12:28:24.881Z,48.02
2022-09-15T12:29:24.811Z,36.25
2022-09-15T12:30:24.816Z,39.64
2022-09-15T12:31:24.828Z,42.22
2022-09-15T12:32:24.780Z,44.15
2022-09-15T12:33:24.760Z,45.76
2022-09-15T12:34:24.757Z,45.44
2022-09-15T12:35:24.747Z,44.96
2022-09-15T12:36:24.751Z,39.16
2022-09-15T12:37:24.729Z,38.51
2022-09-15T12:38:24.692Z,36.90
2022-09-15T12:39:24.823Z,35.45
2022-09-15T12:40:24.757Z,36.09
2022-09-15T12:41:24.662Z,35.29
2022-09-15T12:42:24.667Z,36.25
2022-09-15T12:43:24.634Z,37.87
2022-09-15T12:44:24.622Z,35.13
2022-09-15T12:45:24.613Z,42.54
2022-09-15T12:46:24.666Z,34.48
2022-09-15T12:47:24.589Z,35.77
2022-09-15T12:48:24.591Z,41.73
2022-09-15T12:49:24.576Z,38.03
2022-09-15T12:50:24.547Z,39.80
2022-09-15T12:51:24.531Z,37.54
2022-09-15T12:52:24.518Z,44.47
2022-09-15T12:53:24.546Z,46.41